Algarkirk, United Kingdom
Current Conditions -  °F | °C
As of 11:50 PM on Monday 24 Nov 2014 (Local Time) from EGXC Reporting Station
Moderate Fog Moderate Fog  
Wind Chill: 32°   Ceiling: 25000
Heat Index: 32°   Visibility: 0.25mi
Dew Point: 32°   Wind: 2mph
Humidity: 100%   Direction: 190°S
Pressure: 30.33"   Gusts: NA
Location:  52.93°N, 0.03°W
Report Text: EGXC 242350Z 19002KT 0400 FZFG BKN250 M00/M00 Q1027 RED
Loading
Personal Weather Stations






























Interactive Weather Map New forecast layout! Learn more

10-Day Weather Forecast

Advertisements
Track Severe Weather on mobile